Time;durP1;ratioP1;P1;durP2;ratioP2;P2;SDS_P1;SDS_P2;PMS_P1;PMS_P2;Temp;Humidity;BMP_temperature;BMP_pressure;BME280_temperature;BME280_humidity;BME280_pressure;Samples;Min_cycle;Max_cycle;Signal;HPM_P1;HPM_P2
2023/03/21 00:00:44;;;;;;;;;;;;;;;;;;5112999;28;1429;-70
2023/03/21 00:03:10;;;;;;;;;;;;;;;;;;5113288;28;1265;-71
2023/03/21 00:05:44;;;;;;;;;;;;;;;;;;5112805;28;1202;-70
2023/03/21 00:08:09;;;;;;;;;;;;;;;;;;5113604;28;1201;-69
2023/03/21 00:10:35;;;;;;;;;;;;;;;;;;5113498;28;891;-71
2023/03/21 00:13:00;;;;;;;;;;;;;;;;;;5112878;28;1162;-71
2023/03/21 00:15:26;;;;;;;;;;;;;;;;;;5113856;28;1954;-70
2023/03/21 00:18:02;;;;;;;;;;;;;;;;;;5115871;28;891;-70
2023/03/21 00:20:28;;;;;;;;;;;;;;;;;;5113717;28;1099;-71
2023/03/21 00:22:53;;;;;;;;;;;;;;;;;;5116332;28;1023;-70
2023/03/21 00:25:18;;;;;;;;;;;;;;;;;;5114436;28;1153;-71
2023/03/21 00:27:44;;;;;;;;;;;;;;;;;;5116892;28;1124;-71
2023/03/21 00:30:10;;;;;;;;;;;;;;;;;;5118842;28;989;-72
2023/03/21 00:32:36;;;;;;;;;;;;;;;;;;5117025;28;1114;-71
2023/03/21 00:35:02;;;;;;;;;;;;;;;;;;5117630;28;1891;-72
2023/03/21 00:37:27;;;;;;;;;;;;;;;;;;5115852;28;951;-71
2023/03/21 00:39:53;;;;;;;;;;;;;;;;;;5099629;28;1257;-71
2023/03/21 00:42:18;;;;;;;;;;;;;;;;;;5116480;28;1230;-71
2023/03/21 00:44:43;;;;;;;;;;;;;;;;;;5134270;28;935;-71
2023/03/21 00:47:12;;;;;;;;;;;;;;;;;;5134312;28;1097;-70
2023/03/21 00:49:37;;;;;;;;;;;;;;;;;;5133454;28;959;-71
2023/03/21 00:52:07;;;;;;;;;;;;;;;;;;5111754;28;1154;-73
2023/03/21 00:54:33;;;;;;;;;;;;;;;;;;5125088;28;1891;-69
2023/03/21 00:56:58;;;;;;;;;;;;;;;;;;5124289;28;1315;-72
2023/03/21 00:59:23;;;;;;;;;;;;;;;;;;5125301;28;1189;-71
2023/03/21 01:01:49;;;;;;;;;;;;;;;;;;5125927;28;1003;-71
2023/03/21 01:04:15;;;;;;;;;;;;;;;;;;5124659;28;1303;-73
2023/03/21 01:06:41;;;;;;;;;;;;;;;;;;5124663;28;853;-72
2023/03/21 01:09:10;;;;;;;;;;;;;;;;;;5128364;28;1050;-71
2023/03/21 01:11:35;;;;;;;;;;;;;;;;;;5122788;28;1161;-71
2023/03/21 01:14:00;;;;;;;;;;;;;;;;;;5128500;28;1875;-70
2023/03/21 01:16:26;;;;;;;;;;;;;;;;;;5110983;28;1130;-70
2023/03/21 01:18:51;;;;;;;;;;;;;;;;;;5127689;28;896;-70
2023/03/21 01:21:17;;;;;;;;;;;;;;;;;;5127757;28;1120;-71
2023/03/21 01:23:42;;;;;;;;;;;;;;;;;;5130780;28;1177;-70
2023/03/21 01:26:09;;;;;;;;;;;;;;;;;;5133345;28;967;-69
2023/03/21 01:28:35;;;;;;;;;;;;;;;;;;5128527;28;1127;-71
2023/03/21 01:31:01;;;;;;;;;;;;;;;;;;5132964;28;1003;-70
2023/03/21 01:33:27;;;;;;;;;;;;;;;;;;5133482;28;1158;-69
2023/03/21 01:35:52;;;;;;;;;;;;;;;;;;5135714;28;1950;-71
2023/03/21 01:38:18;;;;;;;;;;;;;;;;;;5133183;28;1118;-71
2023/03/21 01:40:47;;;;;;;;;;;;;;;;;;5133877;28;1154;-71
2023/03/21 01:43:24;;;;;;;;;;;;;;;;;;5135063;27;907;-71
2023/03/21 01:46:08;;;;;;;;;;;;;;;;;;5134737;28;1033;-70
2023/03/21 01:48:34;;;;;;;;;;;;;;;;;;5134203;28;994;-70
2023/03/21 01:50:59;;;;;;;;;;;;;;;;;;5133577;28;1209;-71
2023/03/21 01:53:29;;;;;;;;;;;;;;;;;;5102220;28;1226;-71
2023/03/21 01:56:02;;;;;;;;;;;;;;;;;;5114552;28;1906;-71
2023/03/21 01:58:30;;;;;;;;;;;;;;;;;;5113911;28;1232;-71
2023/03/21 02:00:56;;;;;;;;;;;;;;;;;;5116059;28;892;-71
2023/03/21 02:03:22;;;;;;;;;;;;;;;;;;5114929;28;882;-71
2023/03/21 02:06:13;;;;;;;;;;;;;;;;;;5120030;28;1213;-70
2023/03/21 02:08:39;;;;;;;;;;;;;;;;;;5123241;28;1403;-71
2023/03/21 02:11:04;;;;;;;;;;;;;;;;;;5115484;28;1220;-71
2023/03/21 02:13:29;;;;;;;;;;;;;;;;;;5112949;28;1162;-71
2023/03/21 02:16:00;;;;;;;;;;;;;;;;;;5112631;28;1961;-71
2023/03/21 02:18:36;;;;;;;;;;;;;;;;;;5113927;28;954;-71
2023/03/21 02:21:01;;;;;;;;;;;;;;;;;;5113096;28;1237;-71
2023/03/21 02:23:30;;;;;;;;;;;;;;;;;;5114462;28;879;-71
2023/03/21 02:26:14;;;;;;;;;;;;;;;;;;5112765;28;1118;-71
2023/03/21 02:28:45;;;;;;;;;;;;;;;;;;5114268;28;824;-72
2023/03/21 02:31:11;;;;;;;;;;;;;;;;;;5114280;28;879;-71
2023/03/21 02:33:45;;;;;;;;;;;;;;;;;;5112732;28;1268;-71
2023/03/21 02:36:16;;;;;;;;;;;;;;;;;;5114115;28;1910;-71
2023/03/21 02:39:00;;;;;;;;;;;;;;;;;;5112907;28;1316;-71
2023/03/21 02:41:32;;;;;;;;;;;;;;;;;;5114677;28;1038;-71
2023/03/21 02:44:00;;;;;;;;;;;;;;;;;;5113137;28;1379;-71
2023/03/21 02:46:43;;;;;;;;;;;;;;;;;;5114181;28;844;-71
2023/03/21 02:49:08;;;;;;;;;;;;;;;;;;5114575;28;607;-71
2023/03/21 02:51:35;;;;;;;;;;;;;;;;;;5113686;28;1026;-70
2023/03/21 02:54:03;;;;;;;;;;;;;;;;;;5112493;28;1890;-70
2023/03/21 02:56:30;;;;;;;;;;;;;;;;;;5114074;28;932;-70
2023/03/21 02:58:55;;;;;;;;;;;;;;;;;;5113034;28;828;-71
2023/03/21 03:01:24;;;;;;;;;;;;;;;;;;5112260;28;1296;-71
2023/03/21 03:03:49;;;;;;;;;;;;;;;;;;5095764;28;1285;-71
2023/03/21 03:06:18;;;;;;;;;;;;;;;;;;5112508;28;880;-69
2023/03/21 03:08:51;;;;;;;;;;;;;;;;;;5111573;28;1322;-71
2023/03/21 03:11:27;;;;;;;;;;;;;;;;;;5112173;28;1202;-71
2023/03/21 03:13:52;;;;;;;;;;;;;;;;;;5113404;28;885;-71
2023/03/21 03:16:28;;;;;;;;;;;;;;;;;;5113364;28;1906;-71
2023/03/21 03:18:56;;;;;;;;;;;;;;;;;;5112060;28;1289;-71
2023/03/21 03:21:22;;;;;;;;;;;;;;;;;;5113567;28;1289;-71
2023/03/21 03:23:48;;;;;;;;;;;;;;;;;;5113679;28;804;-71
2023/03/21 03:26:31;;;;;;;;;;;;;;;;;;5113446;28;935;-71
2023/03/21 03:29:00;;;;;;;;;;;;;;;;;;5113329;28;839;-70
2023/03/21 03:31:28;;;;;;;;;;;;;;;;;;5111971;28;1166;-71
2023/03/21 03:33:56;;;;;;;;;;;;;;;;;;5113178;28;1275;-71
2023/03/21 03:36:26;;;;;;;;;;;;;;;;;;5113477;28;1914;-71
2023/03/21 03:38:52;;;;;;;;;;;;;;;;;;5113169;28;879;-71
2023/03/21 03:41:23;;;;;;;;;;;;;;;;;;5113545;28;891;-71
2023/03/21 03:43:52;;;;;;;;;;;;;;;;;;5111345;28;1206;-70
2023/03/21 03:46:23;;;;;;;;;;;;;;;;;;5111839;28;1323;-71
2023/03/21 03:48:52;;;;;;;;;;;;;;;;;;5111196;28;1073;-71
2023/03/21 03:51:22;;;;;;;;;;;;;;;;;;5112941;28;847;-70
2023/03/21 03:53:54;;;;;;;;;;;;;;;;;;5104928;28;1281;-70
2023/03/21 03:56:20;;;;;;;;;;;;;;;;;;5091473;28;1953;-71
2023/03/21 03:58:45;;;;;;;;;;;;;;;;;;5091924;28;955;-70
2023/03/21 04:01:11;;;;;;;;;;;;;;;;;;5091921;28;844;-70
2023/03/21 04:03:38;;;;;;;;;;;;;;;;;;5096091;28;871;-70
2023/03/21 04:06:05;;;;;;;;;;;;;;;;;;5096522;28;801;-70
2023/03/21 04:08:30;;;;;;;;;;;;;;;;;;5094940;28;848;-70
2023/03/21 04:10:55;;;;;;;;;;;;;;;;;;5094736;28;1125;-70
2023/03/21 04:13:20;;;;;;;;;;;;;;;;;;5078267;28;1396;-70
2023/03/21 04:15:46;;;;;;;;;;;;;;;;;;5094583;28;1906;-69
2023/03/21 04:18:11;;;;;;;;;;;;;;;;;;5077770;28;1257;-70
2023/03/21 04:20:37;;;;;;;;;;;;;;;;;;5094608;28;1233;-70
2023/03/21 04:23:02;;;;;;;;;;;;;;;;;;5077804;28;1174;-70
2023/03/21 04:25:28;;;;;;;;;;;;;;;;;;5094565;28;923;-70
2023/03/21 04:27:54;;;;;;;;;;;;;;;;;;5094166;28;1285;-70
2023/03/21 04:30:20;;;;;;;;;;;;;;;;;;5095941;28;891;-70
2023/03/21 04:32:52;;;;;;;;;;;;;;;;;;5094036;28;1349;-70
2023/03/21 04:35:19;;;;;;;;;;;;;;;;;;5095789;28;1921;-70
2023/03/21 04:37:44;;;;;;;;;;;;;;;;;;5094984;28;829;-70
2023/03/21 04:40:10;;;;;;;;;;;;;;;;;;5094667;28;841;-71
2023/03/21 04:42:35;;;;;;;;;;;;;;;;;;5096078;28;852;-70
2023/03/21 04:45:01;;;;;;;;;;;;;;;;;;5094231;28;1218;-70
2023/03/21 04:47:26;;;;;;;;;;;;;;;;;;5093944;28;1301;-70
2023/03/21 04:49:52;;;;;;;;;;;;;;;;;;5094519;28;900;-71
2023/03/21 04:52:17;;;;;;;;;;;;;;;;;;5094498;28;881;-71
2023/03/21 04:54:43;;;;;;;;;;;;;;;;;;5094042;28;1977;-70
2023/03/21 04:57:08;;;;;;;;;;;;;;;;;;5077793;28;1151;-70
2023/03/21 04:59:33;;;;;;;;;;;;;;;;;;5094287;28;1305;-70
2023/03/21 05:01:59;;;;;;;;;;;;;;;;;;5095335;28;875;-70
2023/03/21 05:04:25;;;;;;;;;;;;;;;;;;5094368;28;868;-70
2023/03/21 05:06:51;;;;;;;;;;;;;;;;;;5094256;28;1190;-70
2023/03/21 05:09:16;;;;;;;;;;;;;;;;;;5095260;28;915;-71
2023/03/21 05:11:42;;;;;;;;;;;;;;;;;;5095166;28;920;-70
2023/03/21 05:14:08;;;;;;;;;;;;;;;;;;5075465;28;1902;-70
2023/03/21 05:16:35;;;;;;;;;;;;;;;;;;5094208;28;1436;-71
2023/03/21 05:19:03;;;;;;;;;;;;;;;;;;5094316;28;844;-71
2023/03/21 05:21:40;;;;;;;;;;;;;;;;;;5093154;28;1202;-70
2023/03/21 05:24:10;;;;;;;;;;;;;;;;;;5094564;28;863;-70
2023/03/21 05:26:36;;;;;;;;;;;;;;;;;;5094998;28;959;-70
2023/03/21 05:29:02;;;;;;;;;;;;;;;;;;5093133;28;1115;-70
2023/03/21 05:31:27;;;;;;;;;;;;;;;;;;5092775;28;1273;-70
2023/03/21 05:33:52;;;;;;;;;;;;;;;;;;5092717;28;1146;-72
2023/03/21 05:36:17;;;;;;;;;;;;;;;;;;5092978;28;1909;-70
2023/03/21 05:38:44;;;;;;;;;;;;;;;;;;5093010;28;1138;-70
2023/03/21 05:41:10;;;;;;;;;;;;;;;;;;5093116;28;848;-71
2023/03/21 05:43:36;;;;;;;;;;;;;;;;;;5092911;28;999;-71
2023/03/21 05:46:02;;;;;;;;;;;;;;;;;;5076064;28;1246;-71
2023/03/21 05:48:27;;;;;;;;;;;;;;;;;;5092986;28;1396;-71
2023/03/21 05:50:52;;;;;;;;;;;;;;;;;;5093058;28;1111;-70
2023/03/21 05:53:18;;;;;;;;;;;;;;;;;;5092742;28;1261;-71
2023/03/21 05:55:43;;;;;;;;;;;;;;;;;;5093133;28;1913;-71
2023/03/21 05:58:08;;;;;;;;;;;;;;;;;;5093310;28;1226;-71
2023/03/21 06:00:33;;;;;;;;;;;;;;;;;;5094461;28;987;-71
2023/03/21 06:02:59;;;;;;;;;;;;;;;;;;5093899;28;852;-71
2023/03/21 06:05:24;;;;;;;;;;;;;;;;;;5093720;28;892;-71
2023/03/21 06:07:50;;;;;;;;;;;;;;;;;;5094439;28;1100;-71
2023/03/21 06:10:15;;;;;;;;;;;;;;;;;;5092767;28;836;-71
2023/03/21 06:12:42;;;;;;;;;;;;;;;;;;5094202;28;832;-71
2023/03/21 06:15:07;;;;;;;;;;;;;;;;;;5092343;28;1913;-71
2023/03/21 06:17:33;;;;;;;;;;;;;;;;;;5092795;28;1155;-71
2023/03/21 06:19:59;;;;;;;;;;;;;;;;;;5092550;28;1138;-71
2023/03/21 06:22:25;;;;;;;;;;;;;;;;;;5092532;28;1169;-71
2023/03/21 06:24:50;;;;;;;;;;;;;;;;;;5092171;28;1154;-71
2023/03/21 06:27:16;;;;;;;;;;;;;;;;;;5094045;28;868;-72
2023/03/21 06:29:41;;;;;;;;;;;;;;;;;;5093970;28;920;-72
2023/03/21 06:32:07;;;;;;;;;;;;;;;;;;5092329;28;1305;-72
2023/03/21 06:34:32;;;;;;;;;;;;;;;;;;5093797;28;1963;-72
2023/03/21 06:36:57;;;;;;;;;;;;;;;;;;5093574;28;947;-72
2023/03/21 06:39:23;;;;;;;;;;;;;;;;;;5093399;28;955;-71
2023/03/21 06:41:48;;;;;;;;;;;;;;;;;;5093165;28;1052;-71
2023/03/21 06:44:13;;;;;;;;;;;;;;;;;;5092108;28;896;-71
2023/03/21 06:46:39;;;;;;;;;;;;;;;;;;5092376;28;914;-71
2023/03/21 06:49:04;;;;;;;;;;;;;;;;;;5093785;28;966;-71
2023/03/21 06:51:29;;;;;;;;;;;;;;;;;;5092181;28;841;-71
2023/03/21 06:53:55;;;;;;;;;;;;;;;;;;5092949;28;809;-71
2023/03/21 06:56:20;;;;;;;;;;;;;;;;;;5091171;28;1901;-71
2023/03/21 06:58:45;;;;;;;;;;;;;;;;;;5093012;28;904;-71
2023/03/21 07:01:11;;;;;;;;;;;;;;;;;;5090957;28;1218;-71
2023/03/21 07:03:38;;;;;;;;;;;;;;;;;;5074226;28;1159;-71
2023/03/21 07:06:05;;;;;;;;;;;;;;;;;;5074308;28;1195;-71
2023/03/21 07:08:31;;;;;;;;;;;;;;;;;;5092541;28;888;-70
2023/03/21 07:10:56;;;;;;;;;;;;;;;;;;5091304;28;844;-70
2023/03/21 07:13:22;;;;;;;;;;;;;;;;;;5090734;28;1182;-71
2023/03/21 07:15:47;;;;;;;;;;;;;;;;;;5090722;28;1967;-71
2023/03/21 07:18:12;;;;;;;;;;;;;;;;;;5090934;28;1241;-71
2023/03/21 07:20:38;;;;;;;;;;;;;;;;;;5092226;28;1156;-71
2023/03/21 07:23:03;;;;;;;;;;;;;;;;;;5092455;28;824;-71
2023/03/21 07:25:29;;;;;;;;;;;;;;;;;;5090422;28;1218;-71
2023/03/21 07:27:54;;;;;;;;;;;;;;;;;;5090133;28;1309;-71
2023/03/21 07:30:20;;;;;;;;;;;;;;;;;;5089626;28;1448;-71
2023/03/21 07:32:46;;;;;;;;;;;;;;;;;;5092280;28;903;-70
2023/03/21 07:35:12;;;;;;;;;;;;;;;;;;5073883;28;1955;-70
2023/03/21 07:37:39;;;;;;;;;;;;;;;;;;5095239;28;809;-71
2023/03/21 07:40:09;;;;;;;;;;;;;;;;;;5095922;28;913;-71
2023/03/21 07:42:35;;;;;;;;;;;;;;;;;;5096460;28;864;-71
2023/03/21 07:45:00;;;;;;;;;;;;;;;;;;5096792;28;824;-71
2023/03/21 07:47:28;;;;;;;;;;;;;;;;;;5096181;28;849;-71
2023/03/21 07:49:53;;;;;;;;;;;;;;;;;;5078299;28;1288;-71
2023/03/21 07:52:18;;;;;;;;;;;;;;;;;;5095010;28;817;-71
2023/03/21 07:54:44;;;;;;;;;;;;;;;;;;5096678;28;1906;-71
2023/03/21 07:57:10;;;;;;;;;;;;;;;;;;5095404;28;913;-71
2023/03/21 07:59:35;;;;;;;;;;;;;;;;;;5097139;28;872;-69
2023/03/21 08:02:00;;;;;;;;;;;;;;;;;;5094945;28;1231;-71
2023/03/21 08:04:26;;;;;;;;;;;;;;;;;;5093345;28;892;-71
2023/03/21 08:06:51;;;;;;;;;;;;;;;;;;5094505;28;865;-72
2023/03/21 08:09:17;;;;;;;;;;;;;;;;;;5095041;28;1164;-71
2023/03/21 08:11:42;;;;;;;;;;;;;;;;;;5094643;28;1154;-71
2023/03/21 08:14:07;;;;;;;;;;;;;;;;;;5094109;28;1281;-70
2023/03/21 08:16:33;;;;;;;;;;;;;;;;;;5077494;28;1968;-71
2023/03/21 08:18:58;;;;;;;;;;;;;;;;;;5077474;28;1289;-70
2023/03/21 08:21:24;;;;;;;;;;;;;;;;;;5077101;28;1293;-71
2023/03/21 08:23:49;;;;;;;;;;;;;;;;;;5094479;28;1313;-72
2023/03/21 08:26:17;;;;;;;;;;;;;;;;;;5096065;28;1062;-71
2023/03/21 08:28:42;;;;;;;;;;;;;;;;;;5094415;28;1185;-72
2023/03/21 08:31:08;;;;;;;;;;;;;;;;;;5077834;28;1203;-71
2023/03/21 08:33:33;;;;;;;;;;;;;;;;;;5095597;28;883;-72
2023/03/21 08:35:59;;;;;;;;;;;;;;;;;;5094523;28;1914;-72
2023/03/21 08:38:28;;;;;;;;;;;;;;;;;;5095408;28;852;-72
2023/03/21 08:40:53;;;;;;;;;;;;;;;;;;5077525;28;1241;-71
2023/03/21 08:43:19;;;;;;;;;;;;;;;;;;5094480;28;1067;-70
2023/03/21 08:45:44;;;;;;;;;;;;;;;;;;5094906;28;880;-70
2023/03/21 08:48:09;;;;;;;;;;;;;;;;;;5093679;28;1249;-71
2023/03/21 08:50:34;;;;;;;;;;;;;;;;;;5095490;28;667;-71
2023/03/21 08:53:00;;;;;;;;;;;;;;;;;;5076760;28;1228;-69
2023/03/21 08:55:25;;;;;;;;;;;;;;;;;;5096083;28;1932;-70
2023/03/21 08:57:50;;;;;;;;;;;;;;;;;;5102810;28;1163;-72
2023/03/21 09:00:19;;;;;;;;;;;;;;;;;;5108636;28;1143;-71
2023/03/21 09:02:45;;;;;;;;;;;;;;;;;;5108918;28;1123;-71
2023/03/21 09:05:11;;;;;;;;;;;;;;;;;;5098012;28;1301;-71
2023/03/21 09:07:37;;;;;;;;;;;;;;;;;;5098046;28;1148;-72
2023/03/21 09:10:06;;;;;;;;;;;;;;;;;;5093516;28;1304;-71
2023/03/21 09:12:32;;;;;;;;;;;;;;;;;;5094941;28;1131;-71
2023/03/21 09:14:58;;;;;;;;;;;;;;;;;;5099288;28;1973;-70
2023/03/21 09:17:23;;;;;;;;;;;;;;;;;;5098659;28;1181;-71
2023/03/21 09:19:49;;;;;;;;;;;;;;;;;;5093353;28;1238;-72
2023/03/21 09:22:16;;;;;;;;;;;;;;;;;;5076311;28;1389;-71
2023/03/21 09:24:46;;;;;;;;;;;;;;;;;;5093946;28;897;-71
2023/03/21 09:27:12;;;;;;;;;;;;;;;;;;5093228;28;1293;-71
2023/03/21 09:29:38;;;;;;;;;;;;;;;;;;5092747;28;1390;-72
2023/03/21 09:32:05;;;;;;;;;;;;;;;;;;5094531;28;899;-71
2023/03/21 09:34:30;;;;;;;;;;;;;;;;;;5092704;28;1911;-71
2023/03/21 09:36:56;;;;;;;;;;;;;;;;;;5092695;28;1155;-72
2023/03/21 09:39:21;;;;;;;;;;;;;;;;;;5092786;28;829;-71
2023/03/21 09:41:54;;;;;;;;;;;;;;;;;;5092304;28;1312;-72
2023/03/21 09:44:38;;;;;;;;;;;;;;;;;;5093485;28;903;-70
2023/03/21 09:47:20;;;;;;;;;;;;;;;;;;5092251;28;1138;-71
2023/03/21 09:49:57;;;;;;;;;;;;;;;;;;5093413;28;955;-71
2023/03/21 09:52:27;;;;;;;;;;;;;;;;;;5091910;28;1167;-71
2023/03/21 09:54:54;;;;;;;;;;;;;;;;;;5092294;28;1909;-71
2023/03/21 09:57:20;;;;;;;;;;;;;;;;;;5092177;28;1304;-71
2023/03/21 09:59:47;;;;;;;;;;;;;;;;;;5092541;28;860;-71
2023/03/21 10:02:32;;;;;;;;;;;;;;;;;;5093482;28;824;-71
2023/03/21 10:04:59;;;;;;;;;;;;;;;;;;5092427;28;1422;-69
2023/03/21 10:07:27;;;;;;;;;;;;;;;;;;5093121;28;841;-69
2023/03/21 10:09:53;;;;;;;;;;;;;;;;;;5091532;28;1297;-69
2023/03/21 10:12:21;;;;;;;;;;;;;;;;;;5091768;28;1264;-69
2023/03/21 10:14:49;;;;;;;;;;;;;;;;;;5093152;28;1898;-70
2023/03/21 10:17:24;;;;;;;;;;;;;;;;;;5092126;28;1105;-70
2023/03/21 10:19:55;;;;;;;;;;;;;;;;;;5093112;28;848;-70
2023/03/21 10:22:21;;;;;;;;;;;;;;;;;;5091231;28;1300;-69
2023/03/21 10:24:46;;;;;;;;;;;;;;;;;;5091593;28;987;-69
2023/03/21 10:27:13;;;;;;;;;;;;;;;;;;5091498;28;1226;-69
2023/03/21 10:29:43;;;;;;;;;;;;;;;;;;5092269;28;999;-69
2023/03/21 10:32:13;;;;;;;;;;;;;;;;;;5092669;28;820;-70
2023/03/21 10:34:45;;;;;;;;;;;;;;;;;;5092985;28;1906;-70
2023/03/21 10:37:11;;;;;;;;;;;;;;;;;;5091778;28;1182;-70
2023/03/21 10:39:38;;;;;;;;;;;;;;;;;;5093180;28;896;-70
2023/03/21 10:42:03;;;;;;;;;;;;;;;;;;5093010;28;845;-70
2023/03/21 10:44:30;;;;;;;;;;;;;;;;;;5093229;28;825;-70
2023/03/21 10:46:57;;;;;;;;;;;;;;;;;;5091653;28;907;-70
2023/03/21 10:49:22;;;;;;;;;;;;;;;;;;5093059;28;844;-71
2023/03/21 10:51:52;;;;;;;;;;;;;;;;;;5092683;28;828;-70
2023/03/21 10:54:20;;;;;;;;;;;;;;;;;;5092683;28;1957;-70
2023/03/21 10:56:56;;;;;;;;;;;;;;;;;;5091890;28;1297;-70
2023/03/21 10:59:22;;;;;;;;;;;;;;;;;;5092700;28;824;-70
2023/03/21 11:01:51;;;;;;;;;;;;;;;;;;5092586;28;844;-71
2023/03/21 11:04:18;;;;;;;;;;;;;;;;;;5092148;28;1349;-70
2023/03/21 11:06:54;;;;;;;;;;;;;;;;;;5092481;28;828;-70
2023/03/21 11:09:22;;;;;;;;;;;;;;;;;;5092651;28;1006;-70
2023/03/21 11:11:52;;;;;;;;;;;;;;;;;;5090854;28;1076;-70
2023/03/21 11:14:44;;;;;;;;;;;;;;;;;;5091233;28;1902;-69
2023/03/21 11:17:15;;;;;;;;;;;;;;;;;;5090041;28;1052;-69
2023/03/21 11:19:46;;;;;;;;;;;;;;;;;;5090922;28;1186;-69
2023/03/21 11:22:11;;;;;;;;;;;;;;;;;;5091250;28;1220;-69
2023/03/21 11:24:38;;;;;;;;;;;;;;;;;;5090658;28;1170;-69
2023/03/21 11:27:07;;;;;;;;;;;;;;;;;;5092247;28;967;-70
2023/03/21 11:29:34;;;;;;;;;;;;;;;;;;5090761;28;1449;-70
2023/03/21 11:32:07;;;;;;;;;;;;;;;;;;5091275;28;1138;-70
2023/03/21 11:34:38;;;;;;;;;;;;;;;;;;5090493;28;1910;-70
2023/03/21 11:37:03;;;;;;;;;;;;;;;;;;5091839;28;860;-70
2023/03/21 11:39:46;;;;;;;;;;;;;;;;;;5090555;28;1249;-70
2023/03/21 11:42:25;;;;;;;;;;;;;;;;;;5090953;28;880;-70
2023/03/21 11:44:56;;;;;;;;;;;;;;;;;;5092003;28;821;-70
2023/03/21 11:47:22;;;;;;;;;;;;;;;;;;5090780;28;1116;-70
2023/03/21 11:49:47;;;;;;;;;;;;;;;;;;5073557;28;1281;-70
2023/03/21 11:52:22;;;;;;;;;;;;;;;;;;5090835;28;868;-70
2023/03/21 11:54:50;;;;;;;;;;;;;;;;;;5091502;28;1905;-70
2023/03/21 11:57:18;;;;;;;;;;;;;;;;;;5092100;28;975;-70
2023/03/21 11:59:50;;;;;;;;;;;;;;;;;;5092050;28;880;-70
2023/03/21 12:02:22;;;;;;;;;;;;;;;;;;5091642;28;896;-70
2023/03/21 12:05:12;;;;;;;;;;;;;;;;;;5091351;28;883;-70
2023/03/21 12:07:43;;;;;;;;;;;;;;;;;;5092867;28;1183;-70
2023/03/21 12:10:17;;;;;;;;;;;;;;;;;;5097558;28;1140;-69
2023/03/21 12:12:42;;;;;;;;;;;;;;;;;;5099810;28;1248;-70
2023/03/21 12:15:07;;;;;;;;;;;;;;;;;;5112050;28;1905;-70
2023/03/21 12:17:49;;;;;;;;;;;;;;;;;;5112223;28;958;-71
2023/03/21 12:20:15;;;;;;;;;;;;;;;;;;5110227;28;1229;-71
2023/03/21 12:23:03;;;;;;;;;;;;;;;;;;5113087;28;1076;-71
2023/03/21 12:25:32;;;;;;;;;;;;;;;;;;5115685;28;947;-71
2023/03/21 12:28:00;;;;;;;;;;;;;;;;;;5115801;28;873;-71
2023/03/21 12:30:41;;;;;;;;;;;;;;;;;;5115700;28;872;-71
2023/03/21 12:33:07;;;;;;;;;;;;;;;;;;5114449;28;1205;-71
2023/03/21 12:35:44;;;;;;;;;;;;;;;;;;5115715;28;1910;-71
2023/03/21 12:38:10;;;;;;;;;;;;;;;;;;5116001;28;844;-71
2023/03/21 12:40:42;;;;;;;;;;;;;;;;;;5116202;28;907;-71
2023/03/21 12:43:23;;;;;;;;;;;;;;;;;;5116188;28;900;-71
2023/03/21 12:45:50;;;;;;;;;;;;;;;;;;5111148;28;1278;-71
2023/03/21 12:48:18;;;;;;;;;;;;;;;;;;5094364;28;1249;-71
2023/03/21 12:50:44;;;;;;;;;;;;;;;;;;5094069;28;1331;-70
2023/03/21 12:53:12;;;;;;;;;;;;;;;;;;5077048;28;1080;-70
2023/03/21 12:55:38;;;;;;;;;;;;;;;;;;5092969;28;1910;-70
2023/03/21 12:58:05;;;;;;;;;;;;;;;;;;5093405;28;1027;-71
2023/03/21 13:00:41;;;;;;;;;;;;;;;;;;5094864;28;844;-70
2023/03/21 13:03:17;;;;;;;;;;;;;;;;;;5094388;28;824;-70
2023/03/21 13:05:48;;;;;;;;;;;;;;;;;;5093293;28;1186;-70
2023/03/21 13:08:36;;;;;;;;;;;;;;;;;;5093411;28;1324;-71
2023/03/21 13:11:04;;;;;;;;;;;;;;;;;;5084725;28;1310;-71
2023/03/21 13:13:35;;;;;;;;;;;;;;;;;;5093152;28;1304;-72
2023/03/21 13:16:09;;;;;;;;;;;;;;;;;;5094085;28;1910;-71
2023/03/21 13:18:34;;;;;;;;;;;;;;;;;;5094548;28;884;-70
2023/03/21 13:21:01;;;;;;;;;;;;;;;;;;5092333;28;1188;-72
2023/03/21 13:23:37;;;;;;;;;;;;;;;;;;5092924;28;1280;-71
2023/03/21 13:26:07;;;;;;;;;;;;;;;;;;5094318;28;1025;-71
2023/03/21 13:28:35;;;;;;;;;;;;;;;;;;5094394;28;886;-71
2023/03/21 13:31:17;;;;;;;;;;;;;;;;;;5093844;28;860;-71
2023/03/21 13:33:45;;;;;;;;;;;;;;;;;;5092833;28;833;-71
2023/03/21 13:36:14;;;;;;;;;;;;;;;;;;5092642;28;1909;-71
2023/03/21 13:38:40;;;;;;;;;;;;;;;;;;5092673;28;1207;-72
2023/03/21 13:41:05;;;;;;;;;;;;;;;;;;5094173;28;856;-71
2023/03/21 13:43:32;;;;;;;;;;;;;;;;;;5092590;28;1190;-71
2023/03/21 13:46:14;;;;;;;;;;;;;;;;;;5093312;28;955;-71
2023/03/21 13:48:54;;;;;;;;;;;;;;;;;;5094117;28;855;-71
2023/03/21 13:51:39;;;;;;;;;;;;;;;;;;5093150;28;1225;-71
2023/03/21 13:54:07;;;;;;;;;;;;;;;;;;5092218;28;1178;-71
2023/03/21 13:56:51;;;;;;;;;;;;;;;;;;5103528;28;1890;-71
2023/03/21 13:59:31;;;;;;;;;;;;;;;;;;5104219;28;1244;-71
2023/03/21 14:02:03;;;;;;;;;;;;;;;;;;5117007;28;880;-71
2023/03/21 14:04:29;;;;;;;;;;;;;;;;;;5116865;28;931;-70
2023/03/21 14:06:57;;;;;;;;;;;;;;;;;;5115578;28;1182;-71
2023/03/21 14:09:26;;;;;;;;;;;;;;;;;;5119239;28;876;-70
2023/03/21 14:11:51;;;;;;;;;;;;;;;;;;5118308;28;844;-71
2023/03/21 14:14:19;;;;;;;;;;;;;;;;;;5100229;28;1209;-71
2023/03/21 14:16:44;;;;;;;;;;;;;;;;;;5119430;28;1927;-70
2023/03/21 14:19:10;;;;;;;;;;;;;;;;;;5122309;28;1170;-71
2023/03/21 14:21:36;;;;;;;;;;;;;;;;;;5117004;28;1305;-70
2023/03/21 14:24:06;;;;;;;;;;;;;;;;;;5119923;28;1178;-71
2023/03/21 14:26:36;;;;;;;;;;;;;;;;;;5113846;28;1318;-70
2023/03/21 14:29:04;;;;;;;;;;;;;;;;;;5098227;28;1362;-71
2023/03/21 14:31:30;;;;;;;;;;;;;;;;;;5096947;28;857;-71
2023/03/21 14:33:57;;;;;;;;;;;;;;;;;;5096834;28;895;-71
2023/03/21 14:36:23;;;;;;;;;;;;;;;;;;5095881;28;1913;-71
2023/03/21 14:38:55;;;;;;;;;;;;;;;;;;5104081;28;1213;-73
2023/03/21 14:41:23;;;;;;;;;;;;;;;;;;5115962;28;1135;-74
2023/03/21 14:44:07;;;;;;;;;;;;;;;;;;5102542;28;1233;-73
2023/03/21 14:46:32;;;;;;;;;;;;;;;;;;5106531;28;1289;-74
2023/03/21 14:49:09;;;;;;;;;;;;;;;;;;5097227;28;1176;-73
2023/03/21 14:51:34;;;;;;;;;;;;;;;;;;5095229;28;1361;-73
2023/03/21 14:53:59;;;;;;;;;;;;;;;;;;5075056;28;1492;-73
2023/03/21 14:56:25;;;;;;;;;;;;;;;;;;5074098;28;1975;-73
2023/03/21 14:58:52;;;;;;;;;;;;;;;;;;5090285;28;1336;-73
2023/03/21 15:01:35;;;;;;;;;;;;;;;;;;5090921;28;919;-73
2023/03/21 15:04:04;;;;;;;;;;;;;;;;;;5090462;28;1202;-73
2023/03/21 15:06:31;;;;;;;;;;;;;;;;;;5090683;28;1221;-73
2023/03/21 15:09:02;;;;;;;;;;;;;;;;;;5090578;28;793;-73
2023/03/21 15:11:35;;;;;;;;;;;;;;;;;;5093778;28;829;-73
2023/03/21 15:14:03;;;;;;;;;;;;;;;;;;5092872;28;868;-73
2023/03/21 15:16:29;;;;;;;;;;;;;;;;;;5091845;28;1965;-73
2023/03/21 15:18:55;;;;;;;;;;;;;;;;;;5092959;28;860;-73
2023/03/21 15:21:53;;;;;;;;;;;;;;;;;;5091828;28;1150;-73
2023/03/21 15:24:25;;;;;;;;;;;;;;;;;;5070043;28;1364;-73
2023/03/21 15:26:50;;;;;;;;;;;;;;;;;;5093325;28;1095;-73
2023/03/21 15:29:16;;;;;;;;;;;;;;;;;;5092184;28;1296;-73
2023/03/21 15:31:43;;;;;;;;;;;;;;;;;;5092077;28;1313;-73
2023/03/21 15:34:19;;;;;;;;;;;;;;;;;;5093058;28;880;-73
2023/03/21 15:36:46;;;;;;;;;;;;;;;;;;5093359;28;1976;-73
2023/03/21 15:39:13;;;;;;;;;;;;;;;;;;5091792;28;1178;-73
2023/03/21 15:41:39;;;;;;;;;;;;;;;;;;5092399;28;1129;-73
2023/03/21 15:44:12;;;;;;;;;;;;;;;;;;5093207;28;868;-73
2023/03/21 15:46:44;;;;;;;;;;;;;;;;;;5092765;28;852;-73
2023/03/21 15:49:16;;;;;;;;;;;;;;;;;;5090898;28;1237;-73
2023/03/21 15:51:50;;;;;;;;;;;;;;;;;;5091172;28;1116;-73
2023/03/21 15:54:20;;;;;;;;;;;;;;;;;;5091351;28;1312;-73
2023/03/21 15:56:50;;;;;;;;;;;;;;;;;;5091673;28;1906;-72
2023/03/21 15:59:17;;;;;;;;;;;;;;;;;;5096244;28;815;-73
2023/03/21 16:01:45;;;;;;;;;;;;;;;;;;5078217;28;1214;-73
2023/03/21 16:04:13;;;;;;;;;;;;;;;;;;5096258;28;871;-73
2023/03/21 16:06:50;;;;;;;;;;;;;;;;;;5095470;28;887;-73
2023/03/21 16:09:22;;;;;;;;;;;;;;;;;;5095283;28;1324;-73
2023/03/21 16:11:57;;;;;;;;;;;;;;;;;;5078944;28;1376;-74
2023/03/21 16:14:26;;;;;;;;;;;;;;;;;;5095547;28;1162;-73
2023/03/21 16:16:51;;;;;;;;;;;;;;;;;;5094707;28;1882;-73
2023/03/21 16:19:17;;;;;;;;;;;;;;;;;;5094709;28;1083;-73
2023/03/21 16:21:42;;;;;;;;;;;;;;;;;;5095735;28;1273;-73
2023/03/21 16:24:09;;;;;;;;;;;;;;;;;;5094790;28;1355;-73
2023/03/21 16:26:41;;;;;;;;;;;;;;;;;;5096393;28;923;-73
2023/03/21 16:29:07;;;;;;;;;;;;;;;;;;5095704;28;805;-74
2023/03/21 16:31:33;;;;;;;;;;;;;;;;;;5095021;28;863;-74
2023/03/21 16:33:58;;;;;;;;;;;;;;;;;;5094405;28;1348;-73
2023/03/21 16:36:25;;;;;;;;;;;;;;;;;;5094390;28;1918;-73
2023/03/21 16:38:53;;;;;;;;;;;;;;;;;;5095886;28;867;-73
2023/03/21 16:41:18;;;;;;;;;;;;;;;;;;5094436;28;1230;-74
2023/03/21 16:43:44;;;;;;;;;;;;;;;;;;5094401;28;1196;-73
2023/03/21 16:46:12;;;;;;;;;;;;;;;;;;5094309;28;1269;-73
2023/03/21 16:48:38;;;;;;;;;;;;;;;;;;5094318;28;1155;-74
2023/03/21 16:51:03;;;;;;;;;;;;;;;;;;5095656;28;951;-73
2023/03/21 16:53:29;;;;;;;;;;;;;;;;;;5094674;28;900;-74
2023/03/21 16:55:55;;;;;;;;;;;;;;;;;;5077358;28;1913;-74
2023/03/21 16:58:20;;;;;;;;;;;;;;;;;;5077761;28;1289;-74
2023/03/21 17:00:46;;;;;;;;;;;;;;;;;;5094479;28;1261;-74
2023/03/21 17:03:12;;;;;;;;;;;;;;;;;;5093949;28;1333;-74
2023/03/21 17:05:38;;;;;;;;;;;;;;;;;;5095633;28;875;-74
2023/03/21 17:08:04;;;;;;;;;;;;;;;;;;5094566;28;939;-74
2023/03/21 17:10:30;;;;;;;;;;;;;;;;;;5095491;28;977;-74
2023/03/21 17:12:58;;;;;;;;;;;;;;;;;;5095439;28;1008;-74
2023/03/21 17:15:24;;;;;;;;;;;;;;;;;;5095244;28;1917;-74
2023/03/21 17:17:49;;;;;;;;;;;;;;;;;;5093680;28;1155;-74